Traskwood, Arkansas
Current Conditions -  °F | °C
As of 5:53 PM on Saturday 25 Oct 2014 (Local Time) from KHOT Reporting Station
Clear Clear  
Wind Chill: 79°   Ceiling: Unl
Heat Index: 81°   Visibility: 10mi
Dew Point: 65°   Wind: 7mph
Humidity: 62%   Direction: 220°SW
Pressure: 30.05"   Gusts: NA
Location:  34.45°N, 92.65°W
Report Text: KHOT 252253Z AUTO 22006KT 10SM CLR 26/18 A3005 RMK AO2 SLP169 T02610183
Loading
Personal Weather Stations






























Interactive Weather Map New forecast layout! Learn more

10-Day Weather Forecast

Advertisements
Track Severe Weather on mobile